Time;durP1;ratioP1;P1;durP2;ratioP2;P2;SDS_P1;SDS_P2;PMS_P1;PMS_P2;Temp;Humidity;BMP_temperature;BMP_pressure;BME280_temperature;BME280_humidity;BME280_pressure;Samples;Min_cycle;Max_cycle;Signal;HPM_P1;HPM_P2
2023/06/03 00:00:41;;;;;;;;;15.75;10.75;;;;;18.57;47.01;101255.75;6191846;22;45054;-62
2023/06/03 00:03:11;;;;;;;;;9.00;8.25;;;;;18.58;46.94;101255.75;6192809;23;45197;-64
2023/06/03 00:05:38;;;;;;;;;6.00;6.00;;;;;18.55;46.81;101255.72;6190937;23;47059;-63
2023/06/03 00:08:03;;;;;;;;;11.25;10.00;;;;;18.50;47.31;101251.22;6191963;22;44794;-66
2023/06/03 00:10:29;;;;;;;;;7.50;7.50;;;;;18.50;47.32;101252.13;6191856;22;45039;-64
2023/06/03 00:12:54;;;;;;;;;11.00;10.50;;;;;18.50;47.78;101248.53;6192857;23;44871;-62
2023/06/03 00:15:20;;;;;;;;;14.75;10.50;;;;;18.40;47.46;101229.56;6191487;22;45098;-64
2023/06/03 00:17:45;;;;;;;;;9.50;7.00;;;;;18.47;47.54;101238.59;6191294;23;45086;-64
2023/06/03 00:20:10;;;;;;;;;12.50;8.25;;;;;18.50;47.82;101249.41;6191390;23;44970;-63
2023/06/03 00:22:37;;;;;;;;;19.00;9.75;;;;;18.32;47.79;101223.22;6191935;22;45235;-63
2023/06/03 00:25:03;;;;;;;;;11.75;9.50;;;;;18.40;47.95;101243.09;6191719;22;45825;-63
2023/06/03 00:27:29;;;;;;;;;13.50;11.00;;;;;18.43;48.01;101258.44;6190567;22;44994;-63
2023/06/03 00:29:54;;;;;;;;;14.00;12.75;;;;;18.33;48.23;101237.66;6190822;23;45044;-64
2023/06/03 00:32:19;;;;;;;;;8.50;7.00;;;;;18.34;48.50;101239.47;6191889;22;44984;-62
2023/06/03 00:34:45;;;;;;;;;10.00;8.25;;;;;18.30;48.16;101232.25;6189529;23;55438;-62
2023/06/03 00:37:10;;;;;;;;;10.25;8.75;;;;;18.28;48.30;101231.31;6191122;22;50463;-64
2023/06/03 00:39:35;;;;;;;;;11.25;7.75;;;;;18.23;48.45;101224.13;6191133;22;44881;-64
2023/06/03 00:42:01;;;;;;;;;12.75;9.50;;;;;18.24;48.16;101225.00;6191575;23;44889;-63
2023/06/03 00:44:26;;;;;;;;;11.25;9.50;;;;;18.32;48.50;101235.88;6190796;23;45176;-62
2023/06/03 00:46:52;;;;;;;;;16.25;11.25;;;;;18.33;48.22;101238.56;6190684;23;45295;-63
2023/06/03 00:49:18;;;;;;;;;11.00;10.50;;;;;18.28;48.71;101236.75;6187647;23;44841;-63
2023/06/03 00:51:43;;;;;;;;;12.50;10.50;;;;;18.20;48.75;101228.63;6187716;23;45280;-63
2023/06/03 00:54:09;;;;;;;;;16.00;11.75;;;;;18.17;48.90;101229.50;6189875;23;45680;-63
2023/06/03 00:56:41;;;;;;;;;12.50;10.50;;;;;18.17;48.90;101226.81;6190955;23;45041;-63
2023/06/03 00:59:07;;;;;;;;;10.25;10.25;;;;;18.01;49.49;101206.03;6191853;22;45423;-64
2023/06/03 01:01:35;;;;;;;;;14.25;10.75;;;;;18.13;49.05;101233.13;6191780;22;44987;-64
2023/06/03 01:04:02;;;;;;;;;20.00;10.50;;;;;18.09;49.44;101219.56;6191067;23;45957;-63
2023/06/03 01:06:45;;;;;;;;;20.75;16.00;;;;;18.05;49.46;101222.25;6188717;23;44989;-63
2023/06/03 01:09:44;;;;;;;;;9.75;9.25;;;;;17.94;49.51;101201.50;6190526;22;45121;-64
2023/06/03 01:12:14;;;;;;;;;10.50;9.75;;;;;18.01;49.54;101223.13;6190858;22;45054;-64
2023/06/03 01:14:45;;;;;;;;;12.50;8.50;;;;;18.04;49.37;101224.97;6190478;22;45573;-63
2023/06/03 01:17:15;;;;;;;;;10.75;10.75;;;;;17.99;50.04;101221.34;6191774;22;44875;-63
2023/06/03 01:19:48;;;;;;;;;13.00;11.75;;;;;17.90;49.84;101203.31;6191266;23;45007;-62
2023/06/03 01:22:20;;;;;;;;;12.50;9.75;;;;;17.91;49.83;101217.72;6191417;22;45132;-63
2023/06/03 01:24:51;;;;;;;;;13.00;8.50;;;;;17.76;50.27;101194.19;6188593;23;46487;-63
2023/06/03 01:27:18;;;;;;;;;13.25;12.75;;;;;17.84;50.20;101204.13;6190348;22;44920;-64
2023/06/03 01:29:44;;;;;;;;;17.75;12.00;;;;;17.80;50.56;101198.69;6214051;22;44977;-64
2023/06/03 01:32:15;;;;;;;;;11.00;7.75;;;;;17.84;50.45;101212.25;6191216;22;45011;-63
2023/06/03 01:34:41;;;;;;;;;17.50;11.75;;;;;17.79;50.37;101213.13;6190809;22;46139;-64
2023/06/03 01:37:08;;;;;;;;;15.00;11.25;;;;;17.73;51.16;101203.19;6191445;22;45109;-65
2023/06/03 01:39:40;;;;;;;;;11.00;11.00;;;;;17.71;50.98;101204.09;6189821;23;45124;-63
2023/06/03 01:42:11;;;;;;;;;12.50;12.50;;;;;17.75;50.73;101206.81;6190492;22;44970;-62
2023/06/03 01:44:37;;;;;;;;;13.25;11.75;;;;;17.78;50.90;101214.00;6190664;22;45258;-63
2023/06/03 01:47:04;;;;;;;;;11.75;9.75;;;;;17.72;51.01;101198.69;6191023;22;45000;-63
2023/06/03 01:49:31;;;;;;;;;10.50;10.25;;;;;17.72;50.98;101205.88;6189345;22;45450;-63
2023/06/03 01:51:58;;;;;;;;;13.75;11.75;;;;;17.62;51.01;101196.81;6191804;23;44919;-65
2023/06/03 01:54:25;;;;;;;;;12.25;11.00;;;;;17.57;51.18;101199.53;6190393;22;45841;-63
2023/06/03 01:56:54;;;;;;;;;11.75;11.75;;;;;17.57;51.28;101198.59;6191483;22;44970;-65
2023/06/03 01:59:23;;;;;;;;;12.25;9.50;;;;;17.52;51.61;101198.56;6190559;22;44851;-64
2023/06/03 02:01:52;;;;;;;;;14.00;12.25;;;;;17.61;51.05;101212.13;6191576;22;45093;-64
2023/06/03 02:04:18;;;;;;;;;12.25;11.50;;;;;17.62;51.19;101213.94;6191516;22;45829;-64
2023/06/03 02:06:48;;;;;;;;;15.00;14.25;;;;;17.64;51.90;101211.25;6190217;23;44831;-64
2023/06/03 02:09:13;;;;;;;;;14.75;12.75;;;;;17.64;51.48;101213.97;6190473;23;44985;-65
2023/06/03 02:11:41;;;;;;;;;11.50;9.75;;;;;17.61;51.00;101208.53;6190047;23;46167;-64
2023/06/03 02:14:07;;;;;;;;;16.75;13.25;;;;;17.57;51.70;101209.41;6190087;23;45214;-63
2023/06/03 02:16:32;;;;;;;;;14.75;14.50;;;;;17.53;51.74;101202.19;6190427;23;45092;-65
2023/06/03 02:19:03;;;;;;;;;13.25;13.25;;;;;17.51;52.18;101199.47;6191569;22;44909;-64
2023/06/03 02:21:28;;;;;;;;;12.50;12.50;;;;;17.54;52.08;101203.97;6190381;23;45230;-65
2023/06/03 02:23:53;;;;;;;;;12.25;12.25;;;;;17.45;51.79;101194.94;6190058;22;46348;-63
2023/06/03 02:26:19;;;;;;;;;14.00;12.50;;;;;17.39;51.72;101189.53;6190936;22;45070;-62
2023/06/03 02:28:44;;;;;;;;;15.00;13.25;;;;;17.36;52.08;101192.19;6191473;22;45247;-63
2023/06/03 02:31:10;;;;;;;;;13.25;11.75;;;;;17.41;52.66;101201.22;6191677;22;45030;-63
2023/06/03 02:33:35;;;;;;;;;14.50;14.25;;;;;17.45;52.47;101204.84;6191310;22;45528;-65
2023/06/03 02:36:01;;;;;;;;;16.25;15.25;;;;;17.39;52.34;101200.31;6190859;23;54889;-63
2023/06/03 02:38:27;;;;;;;;;21.25;14.00;;;;;17.32;52.35;101198.47;6189480;23;44954;-63
2023/06/03 02:40:52;;;;;;;;;17.00;14.75;;;;;17.23;53.05;101174.13;6190838;23;44869;-63
2023/06/03 02:43:17;;;;;;;;;13.75;11.25;;;;;17.34;52.79;101202.09;6190128;22;45810;-63
2023/06/03 02:45:43;;;;;;;;;12.75;12.75;;;;;17.31;52.73;101205.69;6190388;23;44877;-63
2023/06/03 02:48:08;;;;;;;;;18.50;15.25;;;;;17.28;52.56;101202.94;6189218;23;46964;-63
2023/06/03 02:50:34;;;;;;;;;15.25;12.25;;;;;17.29;53.10;101217.34;6191503;23;45720;-61
2023/06/03 02:53:00;;;;;;;;;19.50;17.00;;;;;17.19;52.96;101193.88;6190960;22;45016;-64
2023/06/03 02:55:27;;;;;;;;;15.50;11.00;;;;;17.17;53.49;101196.56;6190843;23;44885;-63
2023/06/03 02:57:52;;;;;;;;;14.00;14.00;;;;;17.12;52.99;101191.13;6190789;22;44913;-63
2023/06/03 03:00:18;;;;;;;;;14.50;12.25;;;;;17.13;53.47;101186.66;6190903;22;45144;-64
2023/06/03 03:02:44;;;;;;;;;19.25;14.25;;;;;17.23;53.44;101201.13;6190566;22;45401;-62
2023/06/03 03:05:10;;;;;;;;;13.75;12.25;;;;;17.24;53.18;101201.16;6188565;23;44954;-64
2023/06/03 03:07:36;;;;;;;;;13.00;12.75;;;;;17.20;52.99;101193.00;6188702;23;45128;-64
2023/06/03 03:10:03;;;;;;;;;16.25;13.50;;;;;17.18;53.10;101195.69;6189095;23;44871;-63
2023/06/03 03:12:29;;;;;;;;;13.50;12.75;;;;;17.17;53.28;101192.97;6190412;22;45711;-64
2023/06/03 03:14:54;;;;;;;;;20.75;19.00;;;;;17.13;53.31;101198.34;6163695;23;45077;-63
2023/06/03 03:17:20;;;;;;;;;23.25;17.25;;;;;17.08;53.29;101186.63;6191202;22;44912;-63
2023/06/03 03:19:45;;;;;;;;;14.75;11.50;;;;;17.00;53.70;101182.97;6190994;22;45033;-63
2023/06/03 03:22:11;;;;;;;;;23.25;13.75;;;;;17.02;53.72;101188.38;6191056;22;44994;-63
2023/06/03 03:24:36;;;;;;;;;17.75;11.50;;;;;17.02;53.53;101183.00;6192093;22;44971;-64
2023/06/03 03:27:01;;;;;;;;;16.50;16.25;;;;;16.95;54.07;101176.66;6192509;22;44869;-65
2023/06/03 03:29:27;;;;;;;;;13.25;12.75;;;;;16.95;53.28;101180.25;6190761;23;45439;-64
2023/06/03 03:32:00;;;;;;;;;17.25;14.00;;;;;17.01;53.66;101197.38;6191469;23;44994;-62
2023/06/03 03:34:26;;;;;;;;;11.00;10.75;;;;;17.01;54.00;101197.38;6191696;22;45217;-63
2023/06/03 03:36:51;;;;;;;;;17.25;14.75;;;;;16.96;53.94;101189.25;6191469;23;44925;-64
2023/06/03 03:39:16;;;;;;;;;17.75;16.25;;;;;16.84;54.00;101181.91;6185894;23;45323;-64
2023/06/03 03:41:43;;;;;;;;;17.75;13.50;;;;;16.90;54.11;101205.41;6189473;23;46475;-63
2023/06/03 03:44:08;;;;;;;;;16.50;14.00;;;;;16.82;54.05;101190.91;6190564;22;44977;-66
2023/06/03 03:46:35;;;;;;;;;16.25;14.25;;;;;16.85;54.14;101208.06;6188668;23;44993;-63
2023/06/03 03:49:03;;;;;;;;;17.75;14.75;;;;;16.84;54.03;101210.72;6190170;22;45258;-63
2023/06/03 03:51:28;;;;;;;;;12.25;11.25;;;;;16.73;54.50;101195.34;6187712;22;45323;-63
2023/06/03 03:53:53;;;;;;;;;18.75;16.00;;;;;16.72;54.20;101198.03;6186420;23;45353;-63
2023/06/03 03:56:22;;;;;;;;;22.50;15.75;;;;;16.76;54.50;101199.84;6181088;23;45550;-64
2023/06/03 03:58:48;;;;;;;;;22.00;16.75;;;;;16.77;54.44;101212.44;6186422;22;45472;-64
2023/06/03 04:01:17;;;;;;;;;13.25;12.75;;;;;16.75;54.36;101212.44;6184850;22;45900;-63
2023/06/03 04:03:46;;;;;;;;;16.25;13.50;;;;;16.79;54.45;101217.88;6190353;22;45095;-63
2023/06/03 04:06:13;;;;;;;;;17.00;12.75;;;;;16.72;54.87;101206.13;6186412;23;45315;-64
2023/06/03 04:08:40;;;;;;;;;17.25;16.00;;;;;16.74;54.90;101216.00;6180886;22;45386;-62
2023/06/03 04:11:18;;;;;;;;;26.75;19.25;;;;;16.69;54.63;101206.97;6179926;23;45415;-64
2023/06/03 04:13:44;;;;;;;;;17.75;13.75;;;;;16.67;54.63;101202.47;6180528;22;45258;-64
2023/06/03 04:16:11;;;;;;;;;16.50;15.00;;;;;16.72;55.00;101208.81;6180673;22;45279;-62
2023/06/03 04:18:40;;;;;;;;;18.75;14.50;;;;;16.57;54.33;101185.31;6188023;23;45314;-63
2023/06/03 04:21:05;;;;;;;;;15.25;12.25;;;;;16.72;54.45;101201.63;6183464;23;45107;-62
2023/06/03 04:23:32;;;;;;;;;16.00;13.75;;;;;16.63;55.20;101211.41;6181786;22;45310;-64
2023/06/03 04:25:59;;;;;;;;;19.00;15.75;;;;;16.58;54.67;101209.59;6179881;23;45280;-62
2023/06/03 04:28:24;;;;;;;;;20.00;14.50;;;;;16.49;55.06;101190.63;6180881;23;45295;-62
2023/06/03 04:30:50;;;;;;;;;19.00;14.25;;;;;16.58;55.28;101211.38;6178252;23;46197;-63
2023/06/03 04:33:15;;;;;;;;;18.75;15.00;;;;;16.59;55.28;101208.69;6179289;22;45364;-63
2023/06/03 04:35:41;;;;;;;;;21.00;18.00;;;;;16.52;55.11;101198.75;6181375;22;45447;-63
2023/06/03 04:38:06;;;;;;;;;18.00;14.75;;;;;16.64;55.21;101224.94;6183474;23;45386;-62
2023/06/03 04:40:32;;;;;;;;;19.00;15.50;;;;;16.66;55.15;101222.25;6179655;22;46411;-65
2023/06/03 04:43:03;;;;;;;;;18.75;12.50;;;;;16.61;55.11;101219.50;6183700;23;45250;-62
2023/06/03 04:45:28;;;;;;;;;22.00;20.25;;;;;16.56;55.16;101218.56;6183095;23;45381;-64
2023/06/03 04:47:58;;;;;;;;;18.50;16.25;;;;;16.55;55.15;101227.56;6186142;22;45230;-61
2023/06/03 04:50:24;;;;;;;;;16.75;15.25;;;;;16.53;55.34;101224.84;6187355;22;46148;-64
2023/06/03 04:52:51;;;;;;;;;19.00;15.75;;;;;16.36;55.53;101218.38;6186481;22;45231;-63
2023/06/03 04:55:16;;;;;;;;;18.50;15.75;;;;;16.33;56.12;101231.81;6179934;22;45376;-65
2023/06/03 04:57:45;;;;;;;;;17.50;13.50;;;;;16.33;56.18;101238.13;6183602;22;45469;-63
2023/06/03 05:00:11;;;;;;;;;23.50;16.50;;;;;16.29;56.34;101243.47;6181248;22;45948;-64
2023/06/03 05:02:37;;;;;;;;;22.50;14.75;;;;;16.19;56.20;101227.19;6185292;22;45758;-63
2023/06/03 05:05:03;;;;;;;;;21.00;16.00;;;;;16.21;55.82;101214.63;6191823;22;45066;-61
2023/06/03 05:07:29;;;;;;;;;15.00;15.00;;;;;16.24;56.06;101232.63;6187874;22;44965;-63
2023/06/03 05:09:55;;;;;;;;;16.25;14.75;;;;;16.40;56.34;101258.88;6212713;22;47219;-63
2023/06/03 05:12:20;;;;;;;;;18.75;16.75;;;;;16.34;55.87;101253.41;6192982;23;44945;-64
2023/06/03 05:14:46;;;;;;;;;19.00;17.00;;;;;16.38;56.30;101257.97;6190771;23;45164;-63
2023/06/03 05:17:12;;;;;;;;;21.00;20.00;;;;;16.27;55.38;101232.66;6191278;22;44959;-65
2023/06/03 05:19:37;;;;;;;;;21.75;17.75;;;;;16.48;55.42;101252.66;6189862;22;45084;-63
2023/06/03 05:22:03;;;;;;;;;15.25;13.50;;;;;16.50;55.28;101258.94;6192249;22;45044;-63
2023/06/03 05:24:29;;;;;;;;;14.75;14.75;;;;;16.48;55.33;101253.56;6192005;22;45370;-62
2023/06/03 05:26:54;;;;;;;;;14.75;13.50;;;;;16.56;55.72;101262.66;6192445;22;44880;-63
2023/06/03 05:29:19;;;;;;;;;14.25;14.25;;;;;16.57;55.70;101255.44;6191616;22;45636;-63
2023/06/03 05:31:45;;;;;;;;;16.00;16.00;;;;;16.57;54.31;101255.44;6190498;22;44944;-62
2023/06/03 05:34:10;;;;;;;;;16.00;14.25;;;;;16.55;54.84;101243.75;6191779;23;45053;-63
2023/06/03 05:36:36;;;;;;;;;20.25;15.50;;;;;16.61;55.30;101242.88;6190428;22;44861;-63
2023/06/03 05:39:02;;;;;;;;;28.25;21.00;;;;;16.70;55.19;101245.69;6191076;22;45619;-64
2023/06/03 05:41:27;;;;;;;;;21.25;18.75;;;;;16.67;55.08;101233.06;6190865;22;45063;-63
2023/06/03 05:43:52;;;;;;;;;17.75;14.50;;;;;16.75;54.84;101243.94;6190803;22;44871;-63
2023/06/03 05:46:17;;;;;;;;;17.50;14.00;;;;;16.75;54.56;101234.03;6190577;23;45063;-64
2023/06/03 05:48:44;;;;;;;;;23.00;16.00;;;;;16.79;54.37;101234.06;6189233;23;45574;-63
2023/06/03 05:51:09;;;;;;;;;24.25;20.00;;;;;16.74;54.76;101236.72;6189941;22;45164;-62
2023/06/03 05:53:34;;;;;;;;;16.75;16.75;;;;;16.70;54.98;101233.09;6190737;22;45093;-65
2023/06/03 05:56:00;;;;;;;;;9.25;5.00;;;;;16.83;54.85;101249.38;6190656;22;45078;-63
2023/06/03 05:58:25;;;;;;;;;19.00;14.25;;;;;16.88;54.59;101244.97;6191474;22;45246;-63
2023/06/03 06:00:52;;;;;;;;;19.50;14.25;;;;;16.97;54.11;101246.84;6190296;23;46586;-63
2023/06/03 06:03:18;;;;;;;;;19.00;14.75;;;;;17.00;54.08;101246.88;6189189;23;45010;-62
2023/06/03 06:05:45;;;;;;;;;18.50;13.50;;;;;17.02;53.90;101263.97;6190962;22;45046;-62
2023/06/03 06:08:10;;;;;;;;;17.75;15.25;;;;;17.00;54.42;101257.66;6190955;22;45635;-63
2023/06/03 06:10:35;;;;;;;;;18.75;14.75;;;;;16.98;54.03;101260.34;6190984;22;45003;-61
2023/06/03 06:13:01;;;;;;;;;19.75;11.50;;;;;16.94;53.89;101253.09;6190813;22;44961;-63
2023/06/03 06:15:29;;;;;;;;;16.75;10.50;;;;;16.93;53.92;101248.63;6189889;23;45135;-62
2023/06/03 06:17:55;;;;;;;;;15.50;14.25;;;;;17.18;53.69;101265.00;6189984;22;45842;-64
2023/06/03 06:20:20;;;;;;;;;21.75;21.50;;;;;17.22;53.52;101261.41;6188924;22;45243;-63
2023/06/03 06:22:48;;;;;;;;;17.75;15.75;;;;;17.08;53.71;101239.72;6188801;23;56936;-63
2023/06/03 06:25:14;;;;;;;;;13.25;12.50;;;;;17.25;52.97;101259.63;6188422;23;44962;-62
2023/06/03 06:27:40;;;;;;;;;12.75;11.75;;;;;17.31;52.83;101270.50;6190421;22;45565;-61
2023/06/03 06:30:06;;;;;;;;;16.00;10.25;;;;;17.35;52.76;101268.72;6190429;22;44796;-64
2023/06/03 06:32:46;;;;;;;;;19.00;17.00;;;;;17.37;52.96;101264.22;6188372;23;45409;-63
2023/06/03 06:35:11;;;;;;;;;13.75;12.00;;;;;17.45;53.16;101269.69;6188117;22;44904;-63
2023/06/03 06:37:37;;;;;;;;;13.00;11.25;;;;;17.34;52.96;101239.91;6190526;22;45838;-63
2023/06/03 06:40:03;;;;;;;;;15.00;11.25;;;;;17.58;52.60;101267.97;6188259;22;45161;-63
2023/06/03 06:42:33;;;;;;;;;19.50;18.25;;;;;17.66;52.95;101263.50;6189640;22;45325;-62
2023/06/03 06:45:09;;;;;;;;;13.25;12.25;;;;;17.73;51.98;101257.22;6190404;22;45162;-62
2023/06/03 06:47:37;;;;;;;;;19.50;15.50;;;;;17.81;51.77;101258.16;6190781;22;46423;-63
2023/06/03 06:50:07;;;;;;;;;13.75;13.25;;;;;17.89;51.79;101265.47;6191544;22;44888;-62
2023/06/03 06:52:34;;;;;;;;;18.00;13.75;;;;;17.89;51.92;101258.25;6191858;22;45405;-62
2023/06/03 06:55:00;;;;;;;;;14.25;12.00;;;;;17.92;51.05;101260.03;6214792;22;45280;-63
2023/06/03 06:57:28;;;;;;;;;18.00;18.00;;;;;18.03;51.37;101270.03;6190954;22;45843;-64
2023/06/03 06:59:54;;;;;;;;;14.75;14.75;;;;;18.05;51.23;101261.94;6191657;23;44822;-64
2023/06/03 07:02:20;;;;;;;;;25.25;19.75;;;;;18.18;50.64;101269.19;6190905;22;44738;-63
2023/06/03 07:04:49;;;;;;;;;16.75;12.50;;;;;18.24;50.34;101266.47;6191889;22;45174;-64
2023/06/03 07:07:14;;;;;;;;;18.25;14.50;;;;;18.27;50.10;101254.78;6191783;22;45455;-64
2023/06/03 07:09:41;;;;;;;;;16.75;14.75;;;;;18.38;50.03;101266.53;6189963;23;45035;-64
2023/06/03 07:12:08;;;;;;;;;19.00;16.00;;;;;18.04;49.95;101195.22;6191195;23;45290;-63
2023/06/03 07:14:33;;;;;;;;;24.00;20.75;;;;;18.53;49.91;101259.34;6216422;22;45237;-62
2023/06/03 07:16:58;;;;;;;;;16.75;12.25;;;;;18.68;49.40;101272.00;6189122;23;46344;-62
2023/06/03 07:19:31;;;;;;;;;14.25;10.50;;;;;18.75;49.39;101266.59;6190619;22;45180;-63
2023/06/03 07:21:56;;;;;;;;;11.75;10.50;;;;;18.85;49.33;101267.53;6192512;22;45167;-63
2023/06/03 07:24:22;;;;;;;;;12.75;11.75;;;;;18.69;49.19;101223.28;6192676;22;44873;-66
2023/06/03 07:26:47;;;;;;;;;13.00;11.75;;;;;19.00;48.60;101266.63;6188969;23;47110;-67
2023/06/03 07:29:13;;;;;;;;;11.50;10.25;;;;;19.12;48.53;101263.00;6192458;23;46119;-69
2023/06/03 07:31:40;;;;;;;;;21.50;13.50;;;;;19.14;48.26;101259.41;6190933;23;45141;-66
2023/06/03 07:34:05;;;;;;;;;14.50;13.25;;;;;19.51;48.09;101253.03;6192549;22;45465;-68
2023/06/03 07:36:33;;;;;;;;;22.25;20.25;;;;;20.18;46.33;101242.88;6192014;23;45429;-67
2023/06/03 07:39:06;;;;;;;;;13.75;12.25;;;;;20.84;44.92;101253.31;6192413;23;45147;-65
2023/06/03 07:41:45;;;;;;;;;16.00;14.50;;;;;21.10;43.99;101246.75;6192796;23;44876;-67
2023/06/03 07:44:13;;;;;;;;;16.67;13.00;;;;;21.31;43.52;101254.69;6191767;22;45071;-66
2023/06/03 07:46:43;;;;;;;;;13.67;12.00;;;;;21.43;42.75;101252.75;6191697;22;45961;-66
2023/06/03 07:49:11;;;;;;;;;11.00;10.00;;;;;21.50;43.17;101270.88;6190317;22;45231;-65
2023/06/03 07:51:40;;;;;;;;;10.33;9.00;;;;;21.40;42.64;101258.22;6191783;22;44912;-66
2023/06/03 07:54:06;;;;;;;;;10.33;8.67;;;;;20.87;42.73;101177.25;6188856;22;45267;-65
2023/06/03 07:56:33;;;;;;;;;7.67;7.67;;;;;21.25;43.06;101253.84;6190599;23;45381;-67
2023/06/03 07:59:00;;;;;;;;;16.00;13.33;;;;;21.20;42.99;101248.47;6189858;23;45482;-70
2023/06/03 08:01:26;;;;;;;;;11.33;10.33;;;;;21.18;43.33;101253.00;6191404;22;45162;-68
2023/06/03 08:03:55;;;;;;;;;13.33;11.67;;;;;21.14;43.18;101256.69;6192283;23;45027;-69
2023/06/03 08:06:26;;;;;;;;;29.25;24.00;;;;;20.94;43.33;101233.31;6192006;22;45167;-70
2023/06/03 08:08:54;;;;;;;;;11.00;11.00;;;;;21.05;43.13;101257.69;6188499;23;45292;-71
2023/06/03 08:11:20;;;;;;;;;16.25;14.00;;;;;21.03;43.29;101251.31;6191569;23;45030;-68
2023/06/03 08:13:47;;;;;;;;;18.67;13.33;;;;;21.01;43.31;101245.00;6190109;23;45431;-70
2023/06/03 08:16:19;;;;;;;;;13.75;10.25;;;;;21.09;43.33;101258.53;6192197;22;45062;-69
2023/06/03 08:18:50;;;;;;;;;13.75;11.75;;;;;21.03;43.29;101243.19;6193105;22;44967;-69
2023/06/03 08:21:17;;;;;;;;;10.00;10.00;;;;;21.00;43.12;101237.78;6194126;22;45184;-68
2023/06/03 08:23:42;;;;;;;;;14.00;12.67;;;;;21.07;43.11;101241.31;6193689;22;44991;-69
2023/06/03 08:26:09;;;;;;;;;15.00;12.33;;;;;21.13;42.39;101244.00;6191967;23;45551;-69
2023/06/03 08:28:38;;;;;;;;;10.33;8.33;;;;;21.17;42.91;101253.94;6192489;23;44914;-70
2023/06/03 08:31:04;;;;;;;;;8.00;8.00;;;;;21.25;42.91;101245.69;6192607;22;45584;-68
2023/06/03 08:33:29;;;;;;;;;22.75;14.00;;;;;21.32;42.79;101236.56;6193131;23;45185;-71
2023/06/03 08:35:54;;;;;;;;;12.00;10.00;;;;;21.38;42.44;101241.94;6191991;23;45117;-68
2023/06/03 08:38:20;;;;;;;;;18.50;15.75;;;;;21.46;42.44;101236.41;6191361;23;45211;-69
2023/06/03 08:40:47;;;;;;;;;10.00;8.67;;;;;21.53;42.62;101243.63;6190249;23;45011;-66
2023/06/03 08:43:14;;;;;;;;;11.00;9.33;;;;;21.57;42.49;101239.97;6191596;23;44910;-70
2023/06/03 08:45:55;;;;;;;;;9.00;9.00;;;;;21.62;42.32;101251.69;6191216;22;45463;-68
2023/06/03 08:48:32;;;;;;;;;10.67;8.00;;;;;21.69;42.32;101245.25;6192010;23;44905;-70
2023/06/03 08:51:07;;;;;;;;;13.00;12.50;;;;;21.84;42.21;101248.72;6192590;23;45006;-69
2023/06/03 08:53:42;;;;;;;;;11.00;10.33;;;;;21.90;42.52;101245.91;6192549;22;44970;-69
2023/06/03 08:56:11;;;;;;;;;12.67;11.00;;;;;21.97;42.10;101235.84;6190095;22;45201;-68
2023/06/03 08:58:43;;;;;;;;;9.33;9.33;;;;;22.06;41.96;101233.03;6186447;23;45324;-71
2023/06/03 09:01:13;;;;;;;;;9.00;7.67;;;;;22.17;41.76;101238.31;6191411;22;44958;-71
2023/06/03 09:03:41;;;;;;;;;12.33;10.33;;;;;22.27;41.59;101234.53;6188835;22;45063;-66
2023/06/03 09:06:07;;;;;;;;;11.00;7.67;;;;;21.97;41.52;101167.84;6190984;22;45574;-65
2023/06/03 09:08:35;;;;;;;;;11.33;10.67;;;;;22.25;41.06;101187.38;6190902;23;45067;-68
2023/06/03 09:11:02;;;;;;;;;9.67;9.67;;;;;22.36;40.61;101200.88;6188196;23;44946;-70
2023/06/03 09:13:31;;;;;;;;;9.67;7.00;;;;;22.53;40.99;101225.13;6190886;22;45058;-67
2023/06/03 09:15:57;;;;;;;;;10.00;7.67;;;;;22.63;40.50;101230.38;6191060;23;45566;-70
2023/06/03 09:18:23;;;;;;;;;6.67;6.67;;;;;22.69;40.23;101215.78;6190359;22;45043;-66
2023/06/03 09:20:48;;;;;;;;;14.67;11.67;;;;;22.74;40.40;101215.69;6192167;22;44998;-66
2023/06/03 09:23:15;;;;;;;;;8.67;8.00;;;;;22.87;40.29;101216.38;6192554;22;44901;-70
2023/06/03 09:25:42;;;;;;;;;13.67;12.00;;;;;22.89;40.27;101218.16;6191527;22;45900;-64
2023/06/03 09:28:07;;;;;;;;;12.67;11.00;;;;;22.88;39.96;101210.00;6190954;22;45029;-66
2023/06/03 09:30:35;;;;;;;;;17.67;10.00;;;;;22.98;39.47;101212.56;6191570;22;44986;-68
2023/06/03 09:33:00;;;;;;;;;20.00;15.67;;;;;23.09;38.89;101216.94;6190698;23;45289;-70
2023/06/03 09:35:26;;;;;;;;;15.33;13.00;;;;;23.19;38.66;101218.56;6192114;22;45402;-65
2023/06/03 09:38:00;;;;;;;;;13.33;10.00;;;;;23.22;39.00;101223.97;6191765;22;44992;-70
2023/06/03 09:40:30;;;;;;;;;11.33;8.00;;;;;23.25;38.27;101231.22;6190119;22;44969;-69
2023/06/03 09:42:56;;;;;;;;;4.33;3.00;;;;;23.22;38.60;101223.97;6189071;23;45183;-69
2023/06/03 09:45:32;;;;;;;;;9.00;8.00;;;;;23.28;38.94;101232.03;6190768;23;45861;-70
2023/06/03 09:47:58;;;;;;;;;9.33;9.33;;;;;23.35;38.88;101222.81;6191326;22;45162;-72
2023/06/03 09:50:26;;;;;;;;;14.00;11.00;;;;;23.40;38.29;101222.72;6190693;23;44922;-70
2023/06/03 09:52:51;;;;;;;;;14.00;12.67;;;;;23.44;38.84;101227.19;6191800;22;45133;-71
2023/06/03 09:55:18;;;;;;;;;24.67;17.00;;;;;23.44;38.79;101232.63;6191378;22;45874;-69
2023/06/03 09:58:09;;;;;;;;;13.33;11.33;;;;;23.46;37.88;101224.41;6192324;22;45045;-67
2023/06/03 10:00:48;;;;;;;;;11.33;9.33;;;;;23.54;38.09;101226.09;6190158;23;44998;-70
2023/06/03 10:03:14;;;;;;;;;11.00;10.67;;;;;23.39;38.21;101201.81;6190633;22;45074;-70
2023/06/03 10:05:41;;;;;;;;;11.33;9.00;;;;;23.55;37.89;101221.53;6191513;22;44986;-67
2023/06/03 10:08:06;;;;;;;;;10.67;10.00;;;;;23.48;37.80;101195.31;6191577;23;45193;-70
2023/06/03 10:10:33;;;;;;;;;23.00;14.67;;;;;23.58;37.25;101216.00;6191070;22;44924;-69
2023/06/03 10:13:17;;;;;;;;;12.00;9.67;;;;;23.58;37.50;101218.75;6191776;22;45216;-71
2023/06/03 10:15:42;;;;;;;;;16.33;11.33;;;;;23.64;37.40;101224.09;6191122;22;45388;-71
2023/06/03 10:18:07;;;;;;;;;13.33;9.67;;;;;23.56;37.21;101198.78;6190544;23;45080;-70
2023/06/03 10:20:38;;;;;;;;;9.00;9.00;;;;;23.69;36.06;101221.22;6191288;22;45099;-69
2023/06/03 10:23:05;;;;;;;;;7.67;7.67;;;;;23.77;35.93;101219.25;6191459;23;45232;-69
2023/06/03 10:25:38;;;;;;;;;6.00;6.00;;;;;23.78;35.46;101207.41;6187550;23;45624;-68
2023/06/03 10:28:03;;;;;;;;;9.67;7.00;;;;;23.83;35.43;101219.16;6190399;22;45003;-69
2023/06/03 10:30:30;;;;;;;;;8.33;8.00;;;;;23.85;35.80;101213.66;6190075;23;44971;-71
2023/06/03 10:33:03;;;;;;;;;8.33;8.33;;;;;23.94;35.27;101218.03;6189874;23;44916;-71
2023/06/03 10:35:30;;;;;;;;;14.67;8.67;;;;;23.85;35.38;101209.09;6190581;22;45580;-70
2023/06/03 10:37:56;;;;;;;;;7.00;7.00;;;;;23.82;34.96;101197.31;6190815;22;45067;-70
2023/06/03 10:40:22;;;;;;;;;8.00;8.00;;;;;23.50;35.21;101138.91;6191488;22;44925;-66
2023/06/03 10:42:49;;;;;;;;;5.67;5.33;;;;;23.97;35.41;101209.78;6192216;23;44854;-68
2023/06/03 10:45:14;;;;;;;;;8.67;8.00;;;;;24.02;35.39;101199.66;6189236;23;47219;-69
2023/06/03 10:47:43;;;;;;;;;13.67;10.67;;;;;24.08;34.88;101204.97;6191759;23;44935;-68
2023/06/03 10:50:28;;;;;;;;;9.00;9.00;;;;;23.96;35.13;101189.78;6190981;22;45200;-67
2023/06/03 10:53:02;;;;;;;;;8.67;7.00;;;;;24.08;34.86;101210.44;6190824;22;45078;-63
2023/06/03 10:56:01;;;;;;;;;9.67;8.67;;;;;24.09;34.52;101206.78;6187462;23;47073;-68
2023/06/03 10:58:28;;;;;;;;;10.67;7.67;;;;;24.12;34.22;101212.16;6215325;22;44960;-68
2023/06/03 11:00:59;;;;;;;;;14.33;10.33;;;;;24.10;34.69;101209.47;6190861;22;45047;-69
2023/06/03 11:03:27;;;;;;;;;13.67;9.67;;;;;24.02;34.79;101206.03;6190760;23;45023;-72
2023/06/03 11:06:13;;;;;;;;;8.33;8.33;;;;;24.00;34.75;101196.94;6190777;22;45181;-70
2023/06/03 11:09:02;;;;;;;;;12.00;8.00;;;;;24.03;34.49;101202.34;6190830;23;45216;-68
2023/06/03 11:12:05;;;;;;;;;9.00;8.00;;;;;24.05;34.49;101199.59;6190342;22;45236;-65
2023/06/03 11:14:31;;;;;;;;;9.00;7.67;;;;;24.05;35.09;101200.47;6190829;22;45224;-67